Time;durP1;ratioP1;P1;durP2;ratioP2;P2;SDS_P1;SDS_P2;PMS_P1;PMS_P2;Temp;Humidity;BMP_temperature;BMP_pressure;BME280_temperature;BME280_humidity;BME280_pressure;Samples;Min_cycle;Max_cycle;Signal;HPM_P1;HPM_P2
2022/07/14 00:01:55;;;;;;;1.70;1.60;;;;;;;22.27;41.05;99756.94;5090773;28;20654;-57
2022/07/14 00:04:22;;;;;;;2.53;1.63;;;;;;;22.21;40.87;99756.25;5090664;28;20202;-57
2022/07/14 00:06:50;;;;;;;4.63;2.40;;;;;;;22.25;40.93;99763.09;5090598;28;20191;-57
2022/07/14 00:09:17;;;;;;;3.90;1.77;;;;;;;22.29;40.70;99759.50;5090652;28;20195;-57
2022/07/14 00:11:43;;;;;;;1.50;1.40;;;;;;;22.30;40.83;99761.25;5090736;28;20535;-58
2022/07/14 00:14:10;;;;;;;1.60;1.50;;;;;;;22.24;40.86;99764.00;5090537;28;20191;-58
2022/07/14 00:16:37;;;;;;;2.07;1.77;;;;;;;22.24;40.85;99764.88;5090385;28;20195;-58
2022/07/14 00:19:04;;;;;;;1.90;1.80;;;;;;;22.25;40.65;99761.34;5090499;28;20666;-57
2022/07/14 00:21:31;;;;;;;1.87;1.70;;;;;;;22.27;40.69;99769.19;5090269;28;20742;-57
2022/07/14 00:23:59;;;;;;;1.50;1.50;;;;;;;22.25;40.80;99770.94;5090506;28;20201;-58
2022/07/14 00:26:26;;;;;;;2.87;1.73;;;;;;;22.19;40.89;99760.66;5090216;28;20206;-57
2022/07/14 00:28:52;;;;;;;1.90;1.70;;;;;;;22.23;40.88;99762.28;5090437;28;20191;-58
2022/07/14 00:31:19;;;;;;;3.87;1.83;;;;;;;22.21;41.28;99769.31;5090272;28;20194;-57
2022/07/14 00:33:46;;;;;;;2.15;1.63;;;;;;;22.18;41.45;99767.66;5090051;28;20463;-58
2022/07/14 00:36:13;;;;;;;2.30;1.77;;;;;;;22.09;41.70;99759.16;5090393;28;20195;-58
2022/07/14 00:38:40;;;;;;;1.80;1.70;;;;;;;22.07;41.82;99756.59;5090232;28;20198;-58
2022/07/14 00:41:08;;;;;;;3.93;1.97;;;;;;;22.02;41.79;99755.00;5090115;28;20214;-58
2022/07/14 00:43:35;;;;;;;1.90;1.80;;;;;;;22.00;42.01;99759.44;5090216;28;20224;-58
2022/07/14 00:46:02;;;;;;;2.30;2.10;;;;;;;21.99;41.91;99757.69;5090161;28;20195;-58
2022/07/14 00:48:29;;;;;;;1.93;1.70;;;;;;;21.93;42.08;99761.34;5090015;28;20195;-58
2022/07/14 00:50:56;;;;;;;2.00;1.90;;;;;;;21.97;41.98;99760.38;5089331;28;20439;-58
2022/07/14 00:53:23;;;;;;;1.80;1.70;;;;;;;21.97;42.06;99764.75;5089932;28;20198;-58
2022/07/14 00:55:50;;;;;;;3.20;1.70;;;;;;;21.92;42.40;99758.78;5090065;28;20195;-57
2022/07/14 00:58:19;;;;;;;3.00;2.30;;;;;;;21.89;42.37;99753.63;5089667;28;20313;-58
2022/07/14 01:00:46;;;;;;;2.17;1.87;;;;;;;21.91;42.17;99762.28;5089910;28;20214;-58
2022/07/14 01:03:13;;;;;;;2.50;1.70;;;;;;;21.82;42.57;99758.09;5090090;28;20203;-57
2022/07/14 01:05:40;;;;;;;1.90;1.80;;;;;;;21.77;42.57;99757.34;5090329;28;20191;-58
2022/07/14 01:08:07;;;;;;;1.70;1.60;;;;;;;21.77;42.58;99762.59;5090104;28;20199;-57
2022/07/14 01:10:34;;;;;;;3.27;1.57;;;;;;;21.74;42.96;99753.06;5089955;28;20565;-58
2022/07/14 01:13:05;;;;;;;1.90;1.80;;;;;;;21.77;42.91;99753.00;5090094;28;20199;-57
2022/07/14 01:15:33;;;;;;;7.10;2.17;;;;;;;21.77;42.94;99766.06;5089738;28;20191;-57
2022/07/14 01:18:03;;;;;;;2.47;2.00;;;;;;;21.74;43.14;99752.19;5089999;28;20188;-58
2022/07/14 01:20:30;;;;;;;1.80;1.70;;;;;;;21.77;42.78;99760.84;5089782;28;20219;-58
2022/07/14 01:22:58;;;;;;;2.23;2.07;;;;;;;21.73;43.01;99753.94;5089812;28;20657;-58
2022/07/14 01:25:25;;;;;;;1.80;1.70;;;;;;;21.77;42.87;99753.00;5088657;28;20436;-58
2022/07/14 01:27:52;;;;;;;1.77;1.67;;;;;;;21.85;42.44;99757.16;5089727;28;20214;-58
2022/07/14 01:30:19;;;;;;;2.27;1.77;;;;;;;21.88;42.30;99757.13;5089642;28;20199;-58
2022/07/14 01:32:46;;;;;;;4.63;2.00;;;;;;;21.77;42.56;99758.22;5089962;28;20191;-59
2022/07/14 01:35:13;;;;;;;3.83;2.00;;;;;;;21.86;42.36;99745.81;5089866;28;20187;-58
2022/07/14 01:37:40;;;;;;;2.47;2.20;;;;;;;21.87;42.49;99755.38;5089624;28;20195;-59
2022/07/14 01:40:10;;;;;;;2.15;2.00;;;;;;;21.92;42.43;99758.78;5088796;28;20443;-59
2022/07/14 01:42:37;;;;;;;2.20;2.10;;;;;;;21.93;42.36;99758.72;5089467;28;20654;-58
2022/07/14 01:45:04;;;;;;;2.00;1.90;;;;;;;21.96;42.08;99760.41;5089493;28;20187;-57
2022/07/14 01:47:31;;;;;;;2.10;1.87;;;;;;;21.90;42.26;99755.31;5089379;28;20202;-58
2022/07/14 01:49:58;;;;;;;2.13;1.87;;;;;;;21.93;42.39;99752.63;5089614;28;20195;-58
2022/07/14 01:52:25;;;;;;;2.20;2.07;;;;;;;21.93;42.25;99763.09;5089545;28;20190;-58
2022/07/14 01:54:52;;;;;;;2.63;2.20;;;;;;;21.91;42.33;99764.88;5089388;28;20213;-57
2022/07/14 01:57:20;;;;;;;1.83;1.73;;;;;;;21.90;42.21;99755.31;5089115;28;20235;-58
2022/07/14 01:59:47;;;;;;;2.73;2.00;;;;;;;21.91;42.39;99757.03;5089527;28;20197;-58
2022/07/14 02:02:14;;;;;;;1.90;1.80;;;;;;;21.94;41.94;99752.59;5089256;28;20215;-58
2022/07/14 02:04:40;;;;;;;2.90;2.00;;;;;;;21.95;42.09;99758.69;5090409;28;20665;-58
2022/07/14 02:07:07;;;;;;;2.70;1.80;;;;;;;21.98;41.82;99764.69;5093024;28;20186;-59
2022/07/14 02:12:19;;;;;;;2.20;2.00;;;;;;;21.96;42.17;99761.25;5093007;28;20502;-59
2022/07/14 02:14:46;;;;;;;2.00;1.90;;;;;;;21.96;41.90;99766.50;5092773;28;20241;-59
2022/07/14 02:17:13;;;;;;;2.37;2.17;;;;;;;21.96;42.03;99766.50;5092881;28;20190;-59
2022/07/14 02:19:40;;;;;;;2.57;1.83;;;;;;;21.87;42.29;99766.72;5092760;28;20565;-58
2022/07/14 02:22:07;;;;;;;2.80;2.20;;;;;;;21.85;42.23;99757.16;5092608;28;20218;-57
2022/07/14 02:24:34;;;;;;;2.20;2.10;;;;;;;21.83;42.51;99762.44;5092908;28;20191;-58
2022/07/14 02:27:01;;;;;;;2.40;2.10;;;;;;;21.84;42.37;99764.13;5092573;28;20187;-58
2022/07/14 02:29:29;;;;;;;2.70;2.00;;;;;;;21.86;42.36;99764.97;5092561;28;20198;-58
2022/07/14 02:31:56;;;;;;;3.53;2.00;;;;;;;21.88;42.37;99763.22;5092466;28;20191;-58
2022/07/14 02:34:23;;;;;;;2.03;1.63;;;;;;;21.83;42.59;99769.44;5092424;28;20688;-58
2022/07/14 02:36:49;;;;;;;1.80;1.70;;;;;;;21.81;42.58;99771.22;5092374;28;20195;-57
2022/07/14 02:39:16;;;;;;;2.73;2.00;;;;;;;21.81;42.80;99774.69;5092531;28;20198;-57
2022/07/14 02:41:43;;;;;;;4.07;2.33;;;;;;;21.78;42.60;99773.00;5092129;28;20215;-58
2022/07/14 02:44:11;;;;;;;2.40;1.93;;;;;;;21.80;42.48;99774.72;5092257;28;20195;-58
2022/07/14 02:46:39;;;;;;;3.83;2.30;;;;;;;21.77;42.55;99773.91;5092099;28;20289;-58
2022/07/14 02:49:07;;;;;;;3.23;2.10;;;;;;;21.82;42.43;99775.53;5092132;28;20191;-58
2022/07/14 02:51:34;;;;;;;2.33;2.17;;;;;;;21.75;42.11;99765.22;5092026;28;20218;-58
2022/07/14 02:54:00;;;;;;;2.40;2.20;;;;;;;21.88;41.86;99768.44;5092234;28;20268;-58
2022/07/14 02:56:27;;;;;;;2.70;1.90;;;;;;;21.87;41.58;99765.84;5091687;28;20675;-57
2022/07/14 02:58:54;;;;;;;3.17;2.00;;;;;;;21.97;41.22;99776.06;5092006;28;20195;-57
2022/07/14 03:01:21;;;;;;;2.70;2.30;;;;;;;21.93;41.57;99773.56;5091442;28;20444;-58
2022/07/14 03:03:50;;;;;;;2.90;2.57;;;;;;;21.86;42.02;99777.19;5091702;28;20285;-58
2022/07/14 03:06:18;;;;;;;2.40;2.20;;;;;;;21.85;41.96;99780.69;5091697;28;20666;-58
2022/07/14 03:08:46;;;;;;;2.90;2.20;;;;;;;21.84;41.98;99779.00;5091654;28;20596;-57
2022/07/14 03:11:13;;;;;;;4.23;2.00;;;;;;;21.98;41.14;99784.75;5091666;28;20240;-58
2022/07/14 03:13:40;;;;;;;2.30;2.10;;;;;;;21.97;40.80;99767.34;5091548;28;20222;-58
2022/07/14 03:16:09;;;;;;;3.80;2.00;;;;;;;22.23;40.24;99791.09;5091429;28;20437;-58
2022/07/14 03:18:36;;;;;;;1.97;1.80;;;;;;;22.27;40.43;99779.66;5091519;28;20444;-58
2022/07/14 03:21:07;;;;;;;3.47;2.07;;;;;;;22.40;40.73;99796.75;5091669;28;20221;-58
2022/07/14 03:23:34;;;;;;;2.33;2.13;;;;;;;22.44;40.65;99793.16;5091752;28;20202;-57
2022/07/14 03:26:02;;;;;;;2.33;2.13;;;;;;;22.49;40.37;99793.03;5091846;28;20232;-58
2022/07/14 03:28:29;;;;;;;2.40;2.20;;;;;;;22.57;40.38;99791.03;5091701;28;20287;-58
2022/07/14 03:30:56;;;;;;;2.30;2.10;;;;;;;22.49;40.22;99764.22;5091623;28;20619;-58
2022/07/14 03:33:24;;;;;;;2.43;2.13;;;;;;;22.65;40.25;99784.72;5091633;28;20718;-58
2022/07/14 03:35:52;;;;;;;5.30;2.03;;;;;;;22.73;39.63;99788.00;5091304;28;20203;-58
2022/07/14 03:38:21;;;;;;;4.17;2.30;;;;;;;22.75;39.50;99780.06;5091233;28;20731;-58
2022/07/14 03:40:47;;;;;;;3.67;2.10;;;;;;;22.85;39.30;99782.38;5091049;28;20202;-58
2022/07/14 03:43:14;;;;;;;3.57;2.40;;;;;;;22.92;39.27;99789.19;5091086;28;20201;-58
2022/07/14 03:45:41;;;;;;;8.80;2.53;;;;;;;23.02;39.26;99789.75;5091095;28;20198;-58
2022/07/14 03:48:08;;;;;;;3.67;2.10;;;;;;;22.85;39.04;99756.16;5091082;28;20662;-58
2022/07/14 03:50:36;;;;;;;3.13;2.30;;;;;;;23.04;39.03;99776.63;5090438;28;20439;-58
2022/07/14 03:53:04;;;;;;;4.03;1.90;;;;;;;23.11;39.07;99783.38;5090801;28;20187;-59
2022/07/14 03:55:32;;;;;;;2.03;1.93;;;;;;;23.07;38.98;99782.63;5090963;28;20206;-58
2022/07/14 03:58:00;;;;;;;3.27;2.30;;;;;;;23.09;39.17;99787.81;5090571;28;20227;-58
2022/07/14 04:00:27;;;;;;;3.47;2.40;;;;;;;23.11;39.14;99791.25;5091098;28;20195;-58
2022/07/14 04:02:54;;;;;;;3.73;2.20;;;;;;;23.09;38.58;99788.69;5090718;28;20214;-58
2022/07/14 04:05:21;;;;;;;2.38;2.13;;;;;;;23.02;38.87;99788.91;5090211;28;20448;-58
2022/07/14 04:07:48;;;;;;;2.07;1.97;;;;;;;22.98;39.06;99798.63;5090820;28;20213;-58
2022/07/14 04:10:15;;;;;;;1.83;1.73;;;;;;;22.92;39.41;99799.66;5090546;28;20195;-58
2022/07/14 04:12:43;;;;;;;7.40;2.30;;;;;;;22.87;39.32;99790.22;5090474;28;20194;-58
2022/07/14 04:15:11;;;;;;;3.33;2.07;;;;;;;22.86;39.51;99791.09;5090587;28;20273;-59
2022/07/14 04:17:38;;;;;;;4.00;2.23;;;;;;;22.93;39.25;99795.28;5090269;28;20198;-58
2022/07/14 04:20:06;;;;;;;3.10;2.30;;;;;;;22.97;39.19;99798.66;5090546;28;20191;-59
2022/07/14 04:22:32;;;;;;;10.00;2.70;;;;;;;22.99;39.36;99799.50;5090191;28;20210;-58
2022/07/14 04:25:00;;;;;;;2.10;2.00;;;;;;;22.98;39.48;99803.00;5090296;28;20720;-58
2022/07/14 04:27:27;;;;;;;2.13;1.90;;;;;;;23.00;39.35;99803.81;5090041;28;20209;-58
2022/07/14 04:29:55;;;;;;;1.97;1.77;;;;;;;23.04;39.34;99801.06;5090183;28;20198;-57
2022/07/14 04:32:21;;;;;;;2.40;2.20;;;;;;;23.14;39.69;99805.13;5090179;28;20191;-58
2022/07/14 04:34:48;;;;;;;2.47;2.07;;;;;;;23.23;39.53;99809.25;5090046;28;20195;-57
2022/07/14 04:37:15;;;;;;;3.80;2.10;;;;;;;23.22;39.63;99808.38;5090108;28;20252;-58
2022/07/14 04:39:42;;;;;;;3.23;2.20;;;;;;;23.25;39.27;99813.53;5089057;28;20948;-58
2022/07/14 04:42:09;;;;;;;2.17;1.80;;;;;;;23.38;39.05;99821.91;5090099;28;20774;-58
2022/07/14 04:44:35;;;;;;;2.20;2.00;;;;;;;23.44;38.95;99821.72;5090089;28;20187;-58
2022/07/14 04:47:04;;;;;;;2.40;2.03;;;;;;;23.45;38.75;99805.97;5090009;28;20194;-58
2022/07/14 04:52:14;;;;;;;4.57;2.17;;;;;;;23.49;38.55;99820.69;5089800;28;20202;-57
2022/07/14 04:54:42;;;;;;;6.25;2.00;;;;;;;23.46;38.58;99820.75;5089334;28;20436;-57
2022/07/14 04:57:08;;;;;;;4.00;1.80;;;;;;;23.41;38.39;99829.69;5089705;28;20223;-57
2022/07/14 04:59:35;;;;;;;3.43;1.93;;;;;;;23.43;39.59;99831.34;5089469;28;20195;-57
2022/07/14 05:02:04;;;;;;;5.17;2.60;;;;;;;23.45;39.60;99831.31;5089223;28;20221;-58
2022/07/14 05:04:31;;;;;;;3.60;2.30;;;;;;;23.52;39.25;99830.22;5089489;28;20703;-57
2022/07/14 05:06:58;;;;;;;4.10;2.27;;;;;;;23.55;38.83;99830.13;5089202;28;20194;-58
2022/07/14 05:09:26;;;;;;;4.87;2.20;;;;;;;23.59;39.03;99823.03;5089502;28;20331;-57
2022/07/14 05:11:53;;;;;;;3.33;2.30;;;;;;;23.69;38.60;99829.69;5089739;28;20191;-58
2022/07/14 05:14:20;;;;;;;3.23;1.93;;;;;;;23.47;38.80;99803.28;5089729;28;20194;-58
2022/07/14 05:16:48;;;;;;;4.03;2.10;;;;;;;23.55;38.65;99809.13;5089469;28;20234;-58
2022/07/14 05:19:17;;;;;;;2.70;2.30;;;;;;;23.82;38.84;99839.75;5089207;28;20198;-57
2022/07/14 05:21:45;;;;;;;3.73;2.13;;;;;;;23.86;38.65;99845.75;5089595;28;20248;-57
2022/07/14 05:24:12;;;;;;;2.00;1.83;;;;;;;23.92;38.81;99842.94;5089395;28;20186;-57
2022/07/14 05:26:39;;;;;;;2.70;2.20;;;;;;;24.02;38.73;99845.22;5089205;28;20689;-57
2022/07/14 05:29:06;;;;;;;2.90;2.03;;;;;;;24.15;38.55;99844.81;5088319;28;20796;-58
2022/07/14 05:31:34;;;;;;;3.47;2.30;;;;;;;24.33;38.25;99846.84;5089074;28;20286;-58
2022/07/14 05:34:00;;;;;;;2.50;1.70;;;;;;;24.32;37.89;99855.63;5089607;28;20202;-57
2022/07/14 05:36:29;;;;;;;2.80;2.43;;;;;;;24.34;38.33;99854.66;5089048;28;20195;-58
2022/07/14 05:38:55;;;;;;;3.33;2.20;;;;;;;24.40;38.27;99851.84;5089126;28;20674;-58
2022/07/14 05:41:22;;;;;;;3.33;2.10;;;;;;;24.46;38.16;99850.78;5093032;28;20207;-57
2022/07/14 05:43:50;;;;;;;3.85;2.83;;;;;;;24.55;38.05;99851.31;5092692;28;20462;-58
2022/07/14 05:46:17;;;;;;;4.27;2.33;;;;;;;24.53;38.09;99847.03;5092912;28;20187;-58
2022/07/14 05:48:43;;;;;;;2.40;1.93;;;;;;;24.55;37.57;99855.72;5092952;28;20657;-58
2022/07/14 05:51:13;;;;;;;4.47;2.27;;;;;;;24.48;37.76;99848.94;5093003;28;20187;-58
2022/07/14 05:53:42;;;;;;;2.07;1.80;;;;;;;24.48;37.08;99859.44;5093191;28;20202;-58
2022/07/14 05:56:11;;;;;;;2.73;2.30;;;;;;;24.55;37.53;99858.34;5092950;28;20190;-58
2022/07/14 05:58:39;;;;;;;4.83;2.33;;;;;;;24.58;37.15;99866.97;5093033;28;20195;-58
2022/07/14 06:01:07;;;;;;;2.27;2.07;;;;;;;24.54;37.11;99860.09;5092801;28;20209;-58
2022/07/14 06:03:34;;;;;;;3.40;2.00;;;;;;;24.63;37.04;99858.94;5092402;28;20214;-58
2022/07/14 06:06:01;;;;;;;2.83;2.30;;;;;;;24.70;37.34;99855.16;5092540;28;20190;-58
2022/07/14 06:08:29;;;;;;;4.40;2.40;;;;;;;24.80;37.69;99853.97;5092628;28;20312;-58
2022/07/14 06:10:58;;;;;;;2.47;1.90;;;;;;;24.89;37.30;99856.25;5092599;28;20283;-58
2022/07/14 06:13:25;;;;;;;3.57;2.00;;;;;;;24.98;37.47;99862.94;5092524;28;20657;-58
2022/07/14 06:15:52;;;;;;;4.20;2.77;;;;;;;25.07;37.01;99865.25;5092426;28;20206;-58
2022/07/14 06:18:19;;;;;;;3.85;2.10;;;;;;;25.13;36.54;99860.59;5091101;28;20444;-58
2022/07/14 06:20:47;;;;;;;5.10;1.90;;;;;;;25.20;36.34;99870.00;5092423;28;20199;-58
2022/07/14 06:23:14;;;;;;;3.20;2.37;;;;;;;25.26;36.77;99857.53;5092431;28;20219;-59
2022/07/14 06:25:41;;;;;;;2.77;2.07;;;;;;;25.17;35.90;99859.59;5092532;28;20195;-58
2022/07/14 06:28:11;;;;;;;3.73;2.23;;;;;;;25.12;36.70;99858.06;5092205;28;20194;-58
2022/07/14 06:30:37;;;;;;;2.87;2.17;;;;;;;25.10;36.82;99842.34;5092588;28;20194;-58
2022/07/14 06:33:04;;;;;;;6.07;3.35;;;;;;;25.17;37.50;99838.56;5091804;28;20935;-58
2022/07/14 06:35:31;;;;;;;2.77;2.20;;;;;;;25.26;36.79;99847.88;5092203;28;20221;-58
2022/07/14 06:37:58;;;;;;;3.10;2.23;;;;;;;25.20;36.65;99813.91;5092305;28;20245;-58
2022/07/14 06:40:25;;;;;;;2.87;2.00;;;;;;;25.35;36.97;99841.41;5091952;28;20189;-58
2022/07/14 06:42:52;;;;;;;5.80;2.40;;;;;;;25.23;36.93;99840.97;5090616;28;20214;-58
2022/07/14 06:45:20;;;;;;;7.93;2.37;;;;;;;25.32;36.55;99833.63;5075610;28;20283;-58
2022/07/14 06:47:47;;;;;;;4.07;2.80;;;;;;;25.42;36.68;99832.34;5091569;28;20195;-58
2022/07/14 06:50:14;;;;;;;4.45;2.20;;;;;;;25.52;36.34;99837.22;5076802;28;20445;-58
2022/07/14 06:52:41;;;;;;;2.67;2.00;;;;;;;25.60;35.78;99823.78;5078586;28;20187;-58
2022/07/14 06:55:09;;;;;;;2.73;1.80;;;;;;;25.70;36.29;99838.28;5091326;28;20257;-57
2022/07/14 06:57:36;;;;;;;2.23;2.00;;;;;;;25.74;36.41;99829.31;5091331;28;20227;-57
2022/07/14 07:00:07;;;;;;;3.17;2.70;;;;;;;25.81;36.92;99825.53;5073987;28;20199;-57
2022/07/14 07:02:36;;;;;;;4.67;2.33;;;;;;;25.85;35.61;99819.22;5089837;28;20231;-58
2022/07/14 07:07:49;;;;;;;3.10;2.20;;;;;;;25.98;35.73;99819.59;5091084;28;20201;-57
2022/07/14 07:10:16;;;;;;;4.43;2.07;;;;;;;26.11;35.04;99823.44;5091201;28;20194;-57
2022/07/14 07:12:42;;;;;;;2.40;2.20;;;;;;;26.11;35.54;99819.03;5091719;28;20191;-58
2022/07/14 07:15:10;;;;;;;6.18;2.30;;;;;;;26.25;34.62;99815.84;5091178;28;20209;-57
2022/07/14 07:17:39;;;;;;;7.18;2.00;;;;;;;26.26;34.21;99825.47;5091068;28;20240;-57
2022/07/14 07:20:07;;;;;;;4.80;2.30;;;;;;;26.31;34.67;99816.44;5090271;28;20458;-58
2022/07/14 07:22:36;;;;;;;3.50;2.23;;;;;;;26.40;34.51;99819.59;5091224;28;20254;-58
2022/07/14 07:25:03;;;;;;;2.53;1.73;;;;;;;26.41;33.62;99821.28;5086517;28;20248;-58
2022/07/14 07:27:30;;;;;;;2.55;2.20;;;;;;;26.48;34.45;99820.97;5089252;28;20191;-58
2022/07/14 07:29:57;;;;;;;3.17;1.97;;;;;;;26.58;34.48;99817.03;5090618;28;20217;-58
2022/07/14 07:32:24;;;;;;;7.00;2.05;;;;;;;26.69;34.57;99814.78;5090196;28;20206;-59
2022/07/14 07:34:52;;;;;;;2.15;1.80;;;;;;;26.70;33.15;99816.47;5088012;28;20186;-58
2022/07/14 07:37:19;;;;;;;3.55;2.08;;;;;;;26.64;33.59;99813.25;5090831;28;20307;-58
2022/07/14 07:39:45;;;;;;;5.07;1.80;;;;;;;26.62;33.40;99817.72;5090721;28;20967;-58
2022/07/14 07:42:12;;;;;;;2.23;1.80;;;;;;;26.61;32.92;99811.63;5090593;28;20226;-58
2022/07/14 07:44:39;;;;;;;3.67;1.98;;;;;;;26.60;33.34;99811.66;5090622;28;20217;-58
2022/07/14 07:47:06;;;;;;;2.45;1.75;;;;;;;26.67;33.52;99811.31;5090275;28;20194;-58
2022/07/14 07:49:33;;;;;;;5.70;2.00;;;;;;;26.86;33.22;99808.78;5089619;28;20443;-58
2022/07/14 07:52:02;;;;;;;5.07;1.63;;;;;;;26.90;31.63;99798.00;5090931;28;20296;-58
2022/07/14 07:54:29;;;;;;;2.60;2.15;;;;;;;26.91;32.61;99794.44;5090602;28;20198;-58
2022/07/14 07:56:57;;;;;;;3.90;3.58;;;;;;;27.08;32.58;99798.97;5090213;28;20245;-57
2022/07/14 07:59:24;;;;;;;1.90;1.80;;;;;;;27.18;31.68;99802.88;5090306;28;20193;-57
2022/07/14 08:01:51;;;;;;;2.17;1.73;;;;;;;27.16;32.31;99793.31;5089893;28;20253;-57
2022/07/14 08:04:18;;;;;;;2.42;1.65;;;;;;;27.22;31.35;99793.88;5090381;28;20443;-57
2022/07/14 08:06:46;;;;;;;2.10;1.80;;;;;;;27.22;30.65;99788.59;5090110;28;20209;-58
2022/07/14 08:09:14;;;;;;;2.05;1.63;;;;;;;27.27;31.10;99793.66;5090020;28;20198;-58
2022/07/14 08:11:42;;;;;;;1.50;1.40;;;;;;;27.24;30.66;99785.91;5090367;28;20202;-59
2022/07/14 08:14:47;;;;;;;5.70;1.65;;;;;;;27.29;31.27;99782.13;5089920;28;20214;-59
2022/07/14 08:16:58;;;;;;;2.22;1.98;;;;;;;27.35;31.81;99786.25;5089870;28;20712;-58
2022/07/14 08:19:26;;;;;;;4.10;1.95;;;;;;;27.43;31.78;99777.06;5090039;28;20195;-58
2022/07/14 08:21:52;;;;;;;3.33;2.17;;;;;;;27.56;32.02;99781.75;5089742;28;20202;-58
2022/07/14 08:24:20;;;;;;;4.10;2.25;;;;;;;27.63;32.38;99783.16;5089811;28;20218;-58
2022/07/14 08:26:48;;;;;;;12.77;2.53;;;;;;;27.66;32.38;99780.38;5089715;28;20568;-58
2022/07/14 08:29:15;;;;;;;4.57;2.00;;;;;;;27.65;30.92;99768.97;5089846;28;20191;-58
2022/07/14 08:31:42;;;;;;;2.30;1.77;;;;;;;27.79;30.45;99781.47;5089333;28;20187;-58
2022/07/14 08:34:09;;;;;;;1.83;1.73;;;;;;;27.87;30.58;99774.03;5089391;28;20195;-58
2022/07/14 08:36:35;;;;;;;4.53;2.40;;;;;;;27.87;29.93;99776.69;5089515;28;20195;-58
2022/07/14 08:39:05;;;;;;;4.47;1.70;;;;;;;27.84;29.89;99776.81;5089138;28;20205;-58
2022/07/14 08:41:35;;;;;;;3.65;1.60;;;;;;;27.72;29.34;99751.00;5089642;28;20274;-66
2022/07/14 08:44:03;;;;;;;1.67;1.58;;;;;;;27.87;29.34;99769.63;5089663;28;20263;-67
2022/07/14 08:46:32;;;;;;;2.95;2.00;;;;;;;27.83;29.32;99768.03;5089430;28;20197;-67
2022/07/14 08:48:59;;;;;;;7.45;2.35;;;;;;;27.84;30.58;99768.91;5082925;28;20210;-66
2022/07/14 08:51:28;;;;;;;8.35;2.00;;;;;;;27.86;30.10;99773.16;5079149;28;20253;-65
2022/07/14 08:53:54;;;;;;;4.25;2.25;;;;;;;27.82;29.83;99761.06;5081760;28;20518;-66
2022/07/14 08:56:21;;;;;;;7.78;2.00;;;;;;;27.83;30.31;99759.25;5078827;28;20629;-66
2022/07/14 08:58:50;;;;;;;2.25;1.77;;;;;;;27.97;29.80;99765.56;5068661;28;20196;-66
2022/07/14 09:01:17;;;;;;;4.35;2.00;;;;;;;28.13;29.41;99763.03;5069324;28;20257;-66
2022/07/14 09:03:44;;;;;;;2.92;1.80;;;;;;;28.22;29.18;99762.56;5069785;28;20654;-67
2022/07/14 09:06:11;;;;;;;2.22;1.67;;;;;;;28.28;28.68;99746.38;5084331;28;20204;-65
2022/07/14 09:08:56;;;;;;;3.30;1.83;;;;;;;28.34;29.14;99754.00;5074420;28;20249;-66
2022/07/14 09:11:23;;;;;;;7.05;2.03;;;;;;;28.43;27.97;99753.50;5068650;28;20195;-66
2022/07/14 09:13:51;;;;;;;2.45;1.38;;;;;;;28.51;26.74;99758.41;5069863;28;20654;-65
2022/07/14 09:16:20;;;;;;;1.98;1.77;;;;;;;28.57;27.83;99747.47;5084634;28;20199;-66
2022/07/14 09:19:03;;;;;;;1.73;1.63;;;;;;;28.57;27.11;99751.00;5076046;28;20566;-67
2022/07/14 09:21:30;;;;;;;3.55;1.92;;;;;;;28.61;27.44;99741.09;5073039;28;20198;-66
2022/07/14 09:23:58;;;;;;;4.77;2.27;;;;;;;28.76;27.35;99742.94;5071733;28;20450;-66
2022/07/14 09:26:25;;;;;;;3.47;1.40;;;;;;;28.76;27.21;99750.06;5072921;28;20457;-66
2022/07/14 09:28:53;;;;;;;5.90;1.85;;;;;;;28.66;27.45;99741.75;5079753;28;20199;-66
2022/07/14 09:31:22;;;;;;;3.38;1.67;;;;;;;28.68;27.22;99747.78;5083389;28;20210;-66
2022/07/14 09:33:50;;;;;;;1.77;1.67;;;;;;;28.78;26.92;99742.88;5080595;28;20191;-66
2022/07/14 09:36:23;;;;;;;3.10;1.90;;;;;;;28.92;27.19;99733.28;5072180;28;20779;-66
2022/07/14 09:38:51;;;;;;;3.43;2.13;;;;;;;29.05;27.78;99718.41;5076057;28;20507;-66
2022/07/14 09:41:18;;;;;;;4.82;2.10;;;;;;;29.27;26.56;99735.75;5088044;28;20286;-67
2022/07/14 09:44:08;;;;;;;1.73;1.63;;;;;;;29.28;26.51;99724.25;5092748;28;20324;-67
2022/07/14 09:46:45;;;;;;;8.10;5.18;;;;;;;29.44;27.33;99725.94;5092862;28;20202;-67
2022/07/14 09:49:12;;;;;;;2.25;1.88;;;;;;;29.62;26.10;99724.88;5092323;28;21003;-68
2022/07/14 09:51:52;;;;;;;1.95;1.85;;;;;;;29.85;25.85;99722.69;5092715;28;20268;-67
2022/07/14 09:54:47;;;;;;;1.70;1.60;;;;;;;29.75;25.57;99720.56;5092787;28;20368;-66
2022/07/14 09:57:24;;;;;;;2.35;2.10;;;;;;;29.76;26.36;99716.09;5092529;28;20226;-66
2022/07/14 09:59:55;;;;;;;2.13;1.58;;;;;;;29.77;25.47;99708.09;5092248;28;20190;-67
2022/07/14 10:02:24;;;;;;;3.00;1.85;;;;;;;29.87;26.52;99708.41;5091191;28;20194;-66
2022/07/14 10:04:54;;;;;;;5.47;2.78;;;;;;;29.95;25.65;99703.50;5091809;28;20233;-67
2022/07/14 10:07:22;;;;;;;4.32;2.17;;;;;;;30.07;26.67;99699.28;5091786;28;20250;-66
2022/07/14 10:09:55;;;;;;;3.00;1.92;;;;;;;30.03;26.00;99690.66;5091870;28;20229;-66
2022/07/14 10:12:25;;;;;;;2.22;1.70;;;;;;;29.69;25.57;99691.78;5092027;28;20198;-66
2022/07/14 10:14:54;;;;;;;2.20;2.00;;;;;;;29.65;26.22;99700.00;5091600;28;20198;-66
2022/07/14 10:17:22;;;;;;;2.17;1.98;;;;;;;29.67;26.71;99671.59;5091770;28;20218;-66
2022/07/14 10:19:49;;;;;;;7.15;3.22;;;;;;;30.00;26.50;99693.47;5091888;28;20202;-66
2022/07/14 10:22:17;;;;;;;4.68;3.17;;;;;;;30.12;25.33;99695.41;5091916;28;20194;-67
2022/07/14 10:24:45;;;;;;;3.95;3.25;;;;;;;30.10;25.98;99686.69;5091371;28;20218;-67
2022/07/14 10:27:12;;;;;;;2.63;2.07;;;;;;;30.27;25.24;99685.66;5083711;28;20441;-66
2022/07/14 10:29:39;;;;;;;2.30;1.95;;;;;;;30.50;25.33;99682.47;5078723;28;20198;-66
2022/07/14 10:32:21;;;;;;;3.83;2.08;;;;;;;30.55;25.33;99683.03;5082042;28;20199;-66
2022/07/14 10:34:59;;;;;;;4.53;3.50;;;;;;;30.76;25.25;99680.84;5090485;28;20183;-67
2022/07/14 10:37:35;;;;;;;3.75;1.67;;;;;;;30.48;25.05;99679.06;5084804;28;20199;-66
2022/07/14 10:40:13;;;;;;;4.13;1.70;;;;;;;30.27;25.33;99675.06;5091778;28;20267;-66
2022/07/14 10:42:53;;;;;;;2.83;1.67;;;;;;;30.37;24.83;99678.88;5091293;28;20546;-58
2022/07/14 10:45:20;;;;;;;1.70;1.52;;;;;;;30.46;25.17;99653.59;5079465;28;20225;-57
2022/07/14 10:47:52;;;;;;;1.90;1.80;;;;;;;30.77;25.71;99663.94;5090821;28;20194;-58
2022/07/14 10:50:20;;;;;;;3.28;2.60;;;;;;;30.93;25.11;99656.75;5091577;28;20197;-58
2022/07/14 10:52:57;;;;;;;1.55;1.45;;;;;;;31.07;24.77;99661.19;5087344;28;20192;-58
2022/07/14 10:55:35;;;;;;;2.40;1.70;;;;;;;30.98;24.75;99662.63;5072287;28;20528;-57
2022/07/14 10:58:27;;;;;;;9.50;1.90;;;;;;;30.96;24.58;99659.19;5087097;28;20715;-58
2022/07/14 11:00:56;;;;;;;4.28;1.67;;;;;;;30.93;24.57;99649.63;5071269;28;20192;-58
2022/07/14 11:03:26;;;;;;;2.88;1.98;;;;;;;31.00;24.74;99658.06;5071243;28;20212;-57
2022/07/14 11:06:13;;;;;;;2.50;1.95;;;;;;;30.87;25.21;99652.69;5074213;28;20186;-57
2022/07/14 11:08:41;;;;;;;2.10;1.88;;;;;;;30.73;25.40;99647.41;5091510;28;20218;-57
2022/07/14 11:11:17;;;;;;;2.28;1.85;;;;;;;30.36;25.71;99650.63;5091490;28;20198;-56
2022/07/14 11:14:12;;;;;;;2.45;1.83;;;;;;;30.23;25.12;99660.28;5091821;28;20632;-57
2022/07/14 11:16:59;;;;;;;3.03;1.70;;;;;;;30.24;25.14;99646.91;5080590;28;20441;-57
2022/07/14 11:19:32;;;;;;;1.70;1.60;;;;;;;30.48;25.38;99647.25;5091263;28;20202;-57
2022/07/14 11:22:17;;;;;;;4.85;1.80;;;;;;;30.48;24.83;99639.28;5091476;28;20604;-57
2022/07/14 11:24:56;;;;;;;2.30;1.65;;;;;;;30.22;25.67;99646.16;5091032;28;20264;-57
2022/07/14 11:27:27;;;;;;;2.40;1.85;;;;;;;30.24;25.40;99633.66;5090837;28;20206;-57
2022/07/14 11:29:57;;;;;;;3.13;1.73;;;;;;;30.49;25.55;99635.66;5090853;28;20262;-57
2022/07/14 11:32:31;;;;;;;2.78;1.70;;;;;;;30.55;24.72;99629.97;5090926;28;20262;-57
2022/07/14 11:38:20;;;;;;;3.00;2.00;;;;;;;30.52;25.51;99639.94;5090077;28;20190;-57
2022/07/14 11:40:50;;;;;;;3.33;2.03;;;;;;;30.56;26.89;99609.63;5090868;28;20194;-57
2022/07/14 11:43:46;;;;;;;4.53;1.98;;;;;;;30.77;25.83;99635.63;5090908;28;20191;-57
2022/07/14 11:46:14;;;;;;;4.03;2.30;;;;;;;31.02;25.66;99621.63;5090701;28;20202;-57
2022/07/14 11:48:44;;;;;;;3.53;3.20;;;;;;;31.22;25.62;99625.66;5090915;28;20202;-57
2022/07/14 11:51:14;;;;;;;3.20;1.98;;;;;;;31.32;24.89;99613.44;5090882;28;20199;-57
2022/07/14 11:53:42;;;;;;;2.65;1.90;;;;;;;31.50;25.80;99614.91;5091104;28;20623;-57